createdAt,value
2023-04-02T00:02:54.184Z,1.2
2023-04-02T00:07:54.077Z,1.2
2023-04-02T00:12:54.104Z,1.5
2023-04-02T00:22:54.891Z,1.5
2023-04-02T00:27:54.485Z,1.6
2023-04-02T00:32:54.157Z,1.6
2023-04-02T00:37:54.101Z,1.6
2023-04-02T00:42:54.135Z,1.6
2023-04-02T00:47:54.139Z,1.7
2023-04-02T00:52:54.133Z,1.8
2023-04-02T00:57:54.103Z,1.8
2023-04-02T01:02:54.166Z,2
2023-04-02T01:07:54.120Z,2
2023-04-02T01:12:54.108Z,2
2023-04-02T01:17:54.100Z,2
2023-04-02T01:22:54.098Z,2
2023-04-02T01:27:54.144Z,2
2023-04-02T01:32:54.117Z,2
2023-04-02T01:37:54.125Z,2
2023-04-02T01:42:54.193Z,2.1
2023-04-02T01:47:54.120Z,2.1
2023-04-02T01:52:54.137Z,2.2
2023-04-02T01:57:54.106Z,2.2
2023-04-02T02:02:54.210Z,2.4
2023-04-02T02:07:54.093Z,2.4
2023-04-02T02:17:55.094Z,2.5
2023-04-02T02:22:54.093Z,2.5
2023-04-02T02:27:54.130Z,2.7
2023-04-02T02:32:54.204Z,2.7
2023-04-02T02:37:54.135Z,2.8
2023-04-02T02:42:54.158Z,2.9
2023-04-02T02:47:54.191Z,3
2023-04-02T02:52:54.113Z,3
2023-04-02T02:57:54.237Z,3.1
2023-04-02T03:02:54.134Z,3.5
2023-04-02T03:07:54.134Z,3.8
2023-04-02T03:12:54.076Z,3.8
2023-04-02T03:17:54.147Z,3.8
2023-04-02T03:22:54.094Z,3.9
2023-04-02T03:27:54.122Z,3.9
2023-04-02T03:32:54.188Z,4.2
2023-04-02T03:37:54.105Z,4.2
2023-04-02T03:42:54.184Z,4.2
2023-04-02T03:47:54.190Z,4.2
2023-04-02T03:52:54.102Z,4.3
2023-04-02T04:03:25.113Z,4.8
2023-04-02T04:08:19.508Z,4.75
2023-04-02T04:12:54.555Z,4.8
2023-04-02T04:17:54.214Z,4.75
2023-04-02T04:22:54.186Z,4.8
2023-04-02T04:27:54.123Z,4.9
2023-04-02T04:32:54.280Z,5
2023-04-02T04:37:54.110Z,5.2
2023-04-02T04:42:54.101Z,5.2
2023-04-02T04:47:54.287Z,5.4
2023-04-02T04:52:54.101Z,5.5
2023-04-02T04:57:54.279Z,5.5
2023-04-02T05:02:54.270Z,5.5
2023-04-02T05:07:54.164Z,5.5
2023-04-02T05:12:54.188Z,5.5
2023-04-02T05:17:54.269Z,5.5
2023-04-02T05:22:54.148Z,5.5
2023-04-02T05:27:54.118Z,5.4
2023-04-02T05:32:54.355Z,5.4
2023-04-02T05:37:54.112Z,5.5
2023-04-02T05:42:54.135Z,5.5
2023-04-02T05:47:54.373Z,5.6
2023-04-02T05:52:54.171Z,5.6
2023-04-02T05:58:21.787Z,5.8
2023-04-02T06:02:54.358Z,5.9
2023-04-02T06:07:54.221Z,5.9
2023-04-02T06:12:54.253Z,5.9
2023-04-02T06:17:54.575Z,5.9
2023-04-02T06:22:54.160Z,6.4
2023-04-02T06:27:54.303Z,6.4
2023-04-02T06:32:54.570Z,6.5
2023-04-02T06:37:54.182Z,6.4
2023-04-02T06:42:54.271Z,6.4
2023-04-02T06:47:54.347Z,6.4
2023-04-02T06:52:54.204Z,6.4
2023-04-02T06:57:54.253Z,6.6
2023-04-02T07:02:54.407Z,6.8
2023-04-02T07:07:54.204Z,6.8
2023-04-02T07:12:54.185Z,7.5
2023-04-02T07:17:54.196Z,8
2023-04-02T07:22:54.216Z,8.1
2023-04-02T07:27:54.150Z,8.3
2023-04-02T07:32:54.323Z,8.5
2023-04-02T07:37:54.346Z,8.9
2023-04-02T07:42:54.320Z,8.7
2023-04-02T07:47:54.296Z,8.9
2023-04-02T07:52:54.358Z,8.9
2023-04-02T07:57:54.182Z,8.7
2023-04-02T08:02:54.343Z,8.5
2023-04-02T08:07:54.193Z,8.5
2023-04-02T08:12:54.171Z,8.5
2023-04-02T08:17:54.272Z,8.1
2023-04-02T08:22:54.187Z,8.1
2023-04-02T08:27:54.168Z,7.3
2023-04-02T08:32:54.541Z,6.1
2023-04-02T08:37:54.185Z,5.9
2023-04-02T08:42:54.191Z,4.9
2023-04-02T08:47:57.726Z,4.9
2023-04-02T08:52:54.187Z,4.9
2023-04-02T08:57:54.427Z,4.8
2023-04-02T09:02:56.247Z,4.8
2023-04-02T09:07:54.213Z,4.8
2023-04-02T09:12:54.199Z,4.9
2023-04-02T09:18:00.433Z,4.6
2023-04-02T09:22:54.272Z,4.6
2023-04-02T09:27:54.133Z,4.6
2023-04-02T09:32:57.965Z,5.8
2023-04-02T09:37:54.262Z,5.8
2023-04-02T09:42:54.206Z,5.8
2023-04-02T09:47:56.735Z,4
2023-04-02T09:52:54.161Z,2.3
2023-04-02T09:57:54.165Z,1.4
2023-04-02T10:02:54.364Z,1.1
2023-04-02T10:07:54.241Z,1.1
2023-04-02T10:12:54.164Z,1.1
2023-04-02T10:17:54.291Z,1.1
2023-04-02T10:22:54.218Z,1
2023-04-02T10:27:54.225Z,1
2023-04-02T10:32:54.299Z,1
2023-04-02T10:37:54.229Z,1
2023-04-02T10:42:54.272Z,1.2
2023-04-02T10:47:54.269Z,1.2
2023-04-02T10:52:57.242Z,1.2
2023-04-02T10:57:54.225Z,1.2
2023-04-02T11:02:54.344Z,1.2
2023-04-02T11:07:54.289Z,1.2
2023-04-02T11:12:54.185Z,1.2
2023-04-02T11:17:54.253Z,1.2
2023-04-02T11:22:54.256Z,1.2
2023-04-02T11:27:54.183Z,1.5
2023-04-02T11:32:54.296Z,1.8
2023-04-02T11:37:54.587Z,2.2
2023-04-02T11:42:54.161Z,1.8
2023-04-02T11:47:54.265Z,1.8
2023-04-02T11:52:54.278Z,1.8
2023-04-02T11:57:54.234Z,1.8
2023-04-02T12:02:54.309Z,1.1
2023-04-02T12:07:54.261Z,0.9
2023-04-02T12:12:54.220Z,0.9
2023-04-02T12:17:54.645Z,0.9
2023-04-02T12:22:54.270Z,0.9
2023-04-02T12:27:54.258Z,0.9
2023-04-02T12:32:54.304Z,0.8
2023-04-02T12:37:54.248Z,0.9
2023-04-02T12:42:54.266Z,0.9
2023-04-02T12:47:57.275Z,0.9
2023-04-02T12:52:54.204Z,1.1
2023-04-02T12:57:54.180Z,1.3
2023-04-02T13:02:54.339Z,1.3
2023-04-02T13:07:54.250Z,1.3
2023-04-02T13:12:54.824Z,1.4
2023-04-02T13:17:54.306Z,1.4
2023-04-02T13:22:54.366Z,1.4
2023-04-02T13:27:54.210Z,1.4
2023-04-02T13:32:57.765Z,1.5
2023-04-02T13:37:54.326Z,1.5
2023-04-02T13:42:54.436Z,1.6
2023-04-02T13:47:54.362Z,1.6
2023-04-02T13:52:54.210Z,1.5
2023-04-02T13:57:54.245Z,1.5
2023-04-02T14:02:54.325Z,1.5
2023-04-02T14:07:54.193Z,1.5
2023-04-02T14:12:54.259Z,1.6
2023-04-02T14:17:54.252Z,2
2023-04-02T14:22:54.242Z,2
2023-04-02T14:27:54.271Z,2.1
2023-04-02T14:32:54.460Z,2.2
2023-04-02T14:37:54.208Z,2.2
2023-04-02T14:42:54.324Z,2.2
2023-04-02T14:47:54.385Z,2.2
2023-04-02T14:52:54.273Z,2.7
2023-04-02T14:57:54.430Z,3.6
2023-04-02T15:02:54.347Z,3.6
2023-04-02T15:07:54.222Z,3.7
2023-04-02T15:12:55.373Z,3.7
2023-04-02T15:17:54.312Z,3.8
2023-04-02T15:22:54.256Z,3.8
2023-04-02T15:27:54.279Z,3.4
2023-04-02T15:32:54.341Z,3.4
2023-04-02T15:37:54.186Z,3.4
2023-04-02T15:42:54.327Z,2.9
2023-04-02T15:47:57.232Z,2.8
2023-04-02T15:52:54.482Z,2.8
2023-04-02T15:57:54.248Z,2.9
2023-04-02T16:02:54.365Z,2.9
2023-04-02T16:07:54.309Z,2.9
2023-04-02T16:12:54.230Z,2.8
2023-04-02T16:17:54.470Z,2.7
2023-04-02T16:23:01.057Z,2.7
2023-04-02T16:27:54.235Z,2.4
2023-04-02T16:32:54.516Z,2.3
2023-04-02T16:37:54.294Z,2.3
2023-04-02T16:42:54.418Z,2.3
2023-04-02T16:47:58.118Z,2.4
2023-04-02T16:52:54.270Z,2.6
2023-04-02T16:57:54.409Z,3
2023-04-02T17:02:54.392Z,3
2023-04-02T17:07:54.249Z,3.1
2023-04-02T17:12:54.234Z,3.5
2023-04-02T17:17:57.955Z,3.5
2023-04-02T17:22:54.210Z,3
2023-04-02T17:27:54.245Z,2.5
2023-04-02T17:32:54.380Z,2.5
2023-04-02T17:38:01.811Z,2.6
2023-04-02T17:42:54.284Z,2.5
2023-04-02T17:47:58.039Z,2.5
2023-04-02T17:52:54.589Z,2.6
2023-04-02T17:57:54.256Z,2.8
2023-04-02T18:02:59.205Z,2.9
2023-04-02T18:07:54.208Z,2.9
2023-04-02T18:12:54.321Z,3.2
2023-04-02T18:17:56.429Z,3.2
2023-04-02T18:22:54.290Z,3.5
2023-04-02T18:27:54.545Z,3.5
2023-04-02T18:32:58.125Z,3.3
2023-04-02T18:37:54.619Z,3.3
2023-04-02T18:42:54.303Z,3.4
2023-04-02T18:47:56.024Z,3.4
2023-04-02T18:52:54.412Z,3.4
2023-04-02T18:57:54.227Z,3.4
2023-04-02T19:02:58.244Z,3.4
2023-04-02T19:07:54.231Z,3.8
2023-04-02T19:12:54.316Z,3.8
2023-04-02T19:17:58.930Z,3.8
2023-04-02T19:22:54.286Z,3.8
2023-04-02T19:27:54.293Z,3.7
2023-04-02T19:32:59.901Z,3.7
2023-04-02T19:37:54.252Z,3.7
2023-04-02T19:42:54.272Z,3.5
2023-04-02T19:47:55.397Z,3.5
2023-04-02T19:52:54.287Z,3.5
2023-04-02T19:58:08.785Z,3.5
2023-04-02T20:02:57.258Z,3.6
2023-04-02T20:07:54.325Z,3.6
2023-04-02T20:12:54.396Z,3.8
2023-04-02T20:18:04.353Z,4.2
2023-04-02T20:22:54.289Z,4.2
2023-04-02T20:27:54.247Z,4.2
2023-04-02T20:32:54.589Z,4.1
2023-04-02T20:37:54.308Z,3.9
2023-04-02T20:42:54.330Z,3.9
2023-04-02T20:47:56.785Z,3.8
2023-04-02T20:52:54.266Z,3.7
2023-04-02T20:57:54.270Z,3.2
2023-04-02T21:03:00.240Z,3.2
2023-04-02T21:07:54.236Z,3.2
2023-04-02T21:12:54.321Z,3.1
2023-04-02T21:17:55.136Z,2.8
2023-04-02T21:22:54.400Z,2.8
2023-04-02T21:27:54.270Z,2.7
2023-04-02T21:32:54.862Z,2.8
2023-04-02T21:42:54.240Z,2.5
2023-04-02T21:47:54.345Z,2.7
2023-04-02T21:52:54.270Z,2.5
2023-04-02T21:57:54.259Z,2.4
2023-04-02T22:02:54.339Z,2.5
2023-04-02T22:07:54.284Z,2.55
2023-04-02T22:12:54.483Z,2.5
2023-04-02T22:17:54.258Z,2.6
2023-04-02T22:22:54.368Z,2.6
2023-04-02T22:27:54.306Z,2.6
2023-04-02T22:32:54.321Z,2.6
2023-04-02T22:37:54.333Z,2.5
2023-04-02T22:42:54.310Z,2.4
2023-04-02T22:47:54.338Z,2.4
2023-04-02T22:52:54.390Z,2.3
2023-04-02T22:57:54.280Z,2.2
2023-04-02T23:02:54.299Z,2.1
2023-04-02T23:07:54.361Z,2.1
2023-04-02T23:12:54.333Z,2.1
2023-04-02T23:17:54.319Z,2.1
2023-04-02T23:22:54.423Z,2.1
2023-04-02T23:27:54.548Z,2.1
2023-04-02T23:32:54.877Z,2.1
2023-04-02T23:37:54.296Z,2.3
2023-04-02T23:42:54.365Z,2.2
2023-04-02T23:47:54.339Z,2.3
2023-04-02T23:52:54.311Z,2.3
2023-04-02T23:57:54.351Z,2.3
